createdAt,value
2023-02-27T00:00:01.423Z,36.79
2023-02-27T00:06:20.240Z,36.7
2023-02-27T00:11:25.259Z,37.6
2023-02-27T00:15:07.351Z,36.17
2023-02-27T00:20:12.074Z,36.46
2023-02-27T00:23:54.473Z,37.86
2023-02-27T00:28:59.320Z,36.06
2023-02-27T00:32:41.591Z,35.74
2023-02-27T00:37:46.305Z,36.73
2023-02-27T00:41:28.870Z,36.94
2023-02-27T00:47:39.371Z,36.81
2023-02-27T00:52:44.248Z,36.09
2023-02-27T00:56:26.502Z,37.53
2023-02-27T01:02:20.850Z,37.27
2023-02-27T01:09:45.809Z,36.01
2023-02-27T01:13:27.982Z,37.93
2023-02-27T01:17:10.399Z,38.59
2023-02-27T01:20:52.801Z,38.33
2023-02-27T01:25:49.354Z,36.19
2023-02-27T01:28:17.587Z,38.45
2023-02-27T01:32:00.091Z,36.92
2023-02-27T01:35:50.642Z,36.87
2023-02-27T01:38:18.832Z,37.29
2023-02-27T01:40:47.082Z,37.05
2023-02-27T01:43:15.403Z,37.87
2023-02-27T01:45:43.699Z,36.4
2023-02-27T01:48:11.941Z,36.28
2023-02-27T01:50:40.161Z,36.96
2023-02-27T01:53:08.418Z,37.06
2023-02-27T01:55:36.687Z,36.91
2023-02-27T01:58:04.975Z,36.39
2023-02-27T02:08:06.248Z,37.72
2023-02-27T02:13:10.954Z,37.77
2023-02-27T02:18:07.563Z,35.99
2023-02-27T02:21:58.152Z,38.29
2023-02-27T02:27:11.107Z,35.22
2023-02-27T02:31:01.644Z,35.62
2023-02-27T02:36:06.295Z,36.46
2023-02-27T02:39:56.886Z,35.53
2023-02-27T02:46:07.608Z,35.73
2023-02-27T02:51:12.380Z,36.67
2023-02-27T02:59:59.442Z,38.31
2023-02-27T03:06:10.100Z,36.77
2023-02-27T03:10:00.653Z,38.26
2023-02-27T03:12:28.923Z,35.99
2023-02-27T03:16:11.410Z,37.4
2023-02-27T03:20:01.970Z,35.27
2023-02-27T03:22:30.200Z,35.6
2023-02-27T03:26:12.587Z,35.44
2023-02-27T03:30:03.183Z,36.3
2023-02-27T03:32:31.553Z,37.5
2023-02-27T03:36:13.878Z,35.4
2023-02-27T03:40:04.451Z,36.71
2023-02-27T03:42:32.704Z,36.85
2023-02-27T03:46:15.114Z,36.65
2023-02-27T03:49:57.496Z,37.19
2023-02-27T03:53:23.544Z,36.3
2023-02-27T03:55:51.753Z,35.57
2023-02-27T03:58:20.078Z,36.5
2023-02-27T04:00:48.369Z,36.51
2023-02-27T04:07:15.483Z,36.79
2023-02-27T04:11:05.960Z,36.35
2023-02-27T04:16:10.741Z,36.69
2023-02-27T04:21:07.220Z,36.05
2023-02-27T04:26:03.726Z,35.71
2023-02-27T04:31:08.615Z,35.96
2023-02-27T04:41:09.750Z,36.21
2023-02-27T04:46:06.331Z,35.9
2023-02-27T04:52:25.186Z,35.99
2023-02-27T04:56:07.529Z,35.15
2023-02-27T04:59:49.940Z,35.48
2023-02-27T05:02:18.291Z,37.21
2023-02-27T05:06:00.580Z,35.82
2023-02-27T05:10:40.726Z,35.93
2023-02-27T05:13:09.034Z,36.31
2023-02-27T05:16:59.590Z,35.98
2023-02-27T05:20:42.001Z,35.78
2023-02-27T05:23:10.257Z,36.29
2023-02-27T05:28:06.813Z,35.52
2023-02-27T05:33:03.428Z,35.76
2023-02-27T05:38:08.084Z,35.95
2023-02-27T05:43:04.603Z,35.81
2023-02-27T05:53:05.849Z,35.58
2023-02-27T05:55:34.093Z,36.31
2023-02-27T05:58:02.486Z,37.35
2023-02-27T06:00:30.662Z,36.85
2023-02-27T06:06:41.303Z,38.07
2023-02-27T06:09:09.601Z,37.25
2023-02-27T06:11:37.862Z,37.16
2023-02-27T06:15:20.274Z,37.22
2023-02-27T06:19:04.894Z,36.97
2023-02-27T06:21:30.894Z,35.39
2023-02-27T06:25:13.298Z,37.1
2023-02-27T06:28:55.726Z,36.04
2023-02-27T06:34:00.465Z,37.11
2023-02-27T06:40:11.064Z,36.41
2023-02-27T06:45:07.620Z,36.56
2023-02-27T06:51:26.545Z,36.68
2023-02-27T06:55:17.074Z,36.42
2023-02-27T06:58:59.639Z,34.83
2023-02-27T07:01:27.780Z,36.14
2023-02-27T07:05:10.154Z,37.23
2023-02-27T07:08:54.087Z,36.75
2023-02-27T07:11:20.818Z,36.9
2023-02-27T07:15:03.227Z,38.01
2023-02-27T07:19:59.701Z,35.72
2023-02-27T07:25:12.643Z,36.97
2023-02-27T07:30:09.223Z,36.12
2023-02-27T07:35:05.731Z,36.44
2023-02-27T07:40:10.507Z,34.94
2023-02-27T07:55:08.216Z,35.54
2023-02-27T08:00:12.967Z,36.12
2023-02-27T08:05:17.764Z,36.74
2023-02-27T08:10:22.410Z,36.03
2023-02-27T08:14:13.015Z,35.85
2023-02-27T08:18:03.594Z,36.65
2023-02-27T08:20:31.894Z,36.32
2023-02-27T08:24:22.463Z,35.5
2023-02-27T08:28:04.900Z,36.92
2023-02-27T08:31:30.897Z,35.77
2023-02-27T08:35:13.243Z,35.33
2023-02-27T08:38:55.644Z,35.34
2023-02-27T08:41:24.001Z,35
2023-02-27T08:45:14.566Z,35.27
2023-02-27T08:47:42.816Z,36.51
2023-02-27T08:50:11.051Z,35.42
2023-02-27T08:52:39.347Z,35.76
2023-02-27T08:55:07.589Z,37.29
2023-02-27T08:57:35.835Z,35.1
2023-02-27T09:00:04.138Z,37.79
2023-02-27T09:05:08.841Z,35.9
2023-02-27T09:08:59.440Z,34.92
2023-02-27T09:11:27.999Z,36.76
2023-02-27T09:15:10.110Z,37.14
2023-02-27T09:20:06.658Z,36.94
2023-02-27T09:25:03.170Z,36.56
2023-02-27T09:28:45.630Z,36.62
2023-02-27T09:31:13.871Z,35.55
2023-02-27T09:34:56.239Z,36.16
2023-02-27T09:40:00.963Z,35.16
2023-02-27T09:45:13.898Z,35.47
2023-02-27T09:55:06.930Z,35.82
2023-02-27T10:00:03.447Z,34.8
2023-02-27T10:05:08.195Z,36.75
2023-02-27T10:07:37.554Z,36.01
2023-02-27T10:10:04.737Z,35.7
2023-02-27T10:12:33.027Z,35.95
2023-02-27T10:15:01.254Z,34.17
2023-02-27T10:18:43.659Z,34.44
2023-02-27T10:22:26.058Z,35.32
2023-02-27T10:24:54.330Z,36.25
2023-02-27T10:28:36.727Z,33.38
2023-02-27T10:31:13.248Z,36.55
2023-02-27T10:35:03.787Z,36.03
2023-02-27T10:40:00.316Z,35.63
2023-02-27T10:45:13.234Z,36.09
2023-02-27T10:49:03.926Z,36.59
2023-02-27T10:54:00.340Z,35.25
2023-02-27T11:00:11.070Z,33.41
2023-02-27T11:08:58.228Z,34.2
2023-02-27T11:15:08.819Z,31.96
2023-02-27T11:21:28.032Z,34.37
2023-02-27T11:25:18.248Z,31.09
2023-02-27T11:27:46.553Z,30.39
2023-02-27T11:30:16.291Z,32.68
2023-02-27T11:32:43.093Z,33.39
2023-02-27T11:36:25.469Z,29.93
2023-02-27T11:40:07.857Z,31.84
2023-02-27T11:45:12.590Z,31.29
2023-02-27T11:49:03.226Z,29.4
2023-02-27T11:51:31.520Z,28.87
2023-02-27T11:54:57.450Z,31.51
2023-02-27T11:57:25.724Z,31.07
2023-02-27T11:59:53.987Z,30.17
2023-02-27T12:05:06.919Z,30.54
2023-02-27T12:07:35.189Z,31.49
2023-02-27T12:10:03.438Z,30.02
2023-02-27T12:12:31.701Z,31.71
2023-02-27T12:15:00.038Z,30.59
2023-02-27T12:17:28.228Z,28.9
2023-02-27T12:19:56.521Z,30.34
2023-02-27T12:22:24.771Z,29.72
2023-02-27T12:24:53.032Z,31.31
2023-02-27T12:29:57.761Z,29.81
2023-02-27T12:36:08.458Z,30.74
2023-02-27T12:41:04.983Z,31.3
2023-02-27T12:44:55.582Z,27.43
2023-02-27T12:48:46.147Z,29.2
2023-02-27T12:51:14.405Z,30.13
2023-02-27T12:56:10.941Z,29.4
2023-02-27T12:59:53.329Z,29.41
2023-02-27T13:04:49.900Z,29.01
2023-02-27T13:08:32.308Z,27.81
2023-02-27T13:11:00.555Z,26.98
2023-02-27T13:13:28.842Z,26.69
2023-02-27T13:15:57.103Z,27.29
2023-02-27T13:18:25.350Z,28.33
2023-02-27T13:25:33.788Z,26.91
2023-02-27T13:29:16.123Z,25.32
2023-02-27T13:31:44.476Z,26.3
2023-02-27T13:34:20.921Z,24.48
2023-02-27T13:39:25.593Z,27.72
2023-02-27T13:44:30.349Z,25.58
2023-02-27T13:49:29.096Z,26.79
2023-02-27T13:55:45.780Z,27.74
2023-02-27T13:58:13.975Z,28.05
2023-02-27T14:01:56.401Z,26.7
2023-02-27T14:05:38.825Z,28.36
2023-02-27T14:09:21.178Z,28.74
2023-02-27T14:14:17.769Z,29.28
2023-02-27T14:16:45.961Z,29.17
2023-02-27T14:21:17.967Z,28.83
2023-02-27T14:25:03.070Z,26.07
2023-02-27T14:28:50.928Z,28.07
2023-02-27T14:33:47.847Z,26.84
2023-02-27T14:36:15.737Z,28.34
2023-02-27T14:38:43.996Z,28.68
2023-02-27T14:41:12.332Z,28.1
2023-02-27T14:43:40.673Z,28.42
2023-02-27T14:47:31.173Z,26.85
2023-02-27T14:51:21.732Z,26.81
2023-02-27T14:53:51.473Z,25.64
2023-02-27T14:56:18.247Z,28.43
2023-02-27T15:00:00.657Z,28.35
2023-02-27T15:03:43.070Z,27.44
2023-02-27T15:06:11.346Z,25.61
2023-02-27T15:08:39.581Z,23.18
2023-02-27T15:11:07.861Z,26.67
2023-02-27T15:13:36.129Z,28.02
2023-02-27T15:16:16.487Z,27.53
2023-02-27T15:21:09.090Z,27.92
2023-02-27T15:26:05.629Z,26.95
2023-02-27T15:31:02.275Z,26.42
2023-02-27T15:35:50.671Z,24.26
2023-02-27T15:38:19.476Z,27.03
2023-02-27T15:40:47.053Z,26.2
2023-02-27T15:43:15.328Z,25.34
2023-02-27T15:45:43.615Z,24.63
2023-02-27T15:48:11.837Z,25.62
2023-02-27T15:50:40.139Z,27.18
2023-02-27T15:53:08.393Z,28.03
2023-02-27T15:55:36.636Z,25.97
2023-02-27T15:58:13.136Z,25.03
2023-02-27T16:03:09.640Z,27.38
2023-02-27T16:08:14.378Z,28.66
2023-02-27T16:14:26.540Z,28.65
2023-02-27T16:19:21.589Z,29.29
2023-02-27T16:23:04.015Z,28.51
2023-02-27T16:28:00.473Z,28.74
2023-02-27T16:30:28.800Z,24.69
2023-02-27T16:34:11.146Z,25.41
2023-02-27T16:37:53.578Z,27.27
2023-02-27T16:41:36.034Z,28.66
2023-02-27T16:45:26.639Z,27.52
2023-02-27T16:47:54.832Z,26.74
2023-02-27T16:50:23.122Z,28.33
2023-02-27T16:54:13.835Z,25.76
2023-02-27T16:56:50.208Z,29.24
2023-02-27T16:59:18.420Z,28.48
2023-02-27T17:03:09.061Z,26.94
2023-02-27T17:05:37.281Z,26.13
2023-02-27T17:08:05.532Z,27.59
2023-02-27T17:10:33.800Z,26.45
2023-02-27T17:13:02.065Z,25.62
2023-02-27T17:18:56.394Z,26.66
2023-02-27T17:22:38.779Z,27.92
2023-02-27T17:25:07.101Z,26.02
2023-02-27T17:28:57.594Z,27.09
2023-02-27T17:35:08.280Z,26.94
2023-02-27T17:40:04.806Z,26.49
2023-02-27T17:47:37.807Z,28.02
2023-02-27T17:52:34.340Z,28.58
2023-02-27T17:57:30.893Z,29.68
2023-02-27T18:01:13.283Z,30.16
2023-02-27T18:03:41.518Z,30
2023-02-27T18:07:23.906Z,30.83
2023-02-27T18:11:14.525Z,29.19
2023-02-27T18:14:56.956Z,31.19
2023-02-27T18:26:04.194Z,29.26
2023-02-27T18:32:06.618Z,30.73
2023-02-27T18:34:34.909Z,29.96
2023-02-27T18:37:03.157Z,30.12
2023-02-27T18:39:31.393Z,29.29
2023-02-27T18:41:59.659Z,30.2
2023-02-27T18:44:27.945Z,29.93
2023-02-27T18:46:56.270Z,29.45
2023-02-27T18:49:24.480Z,29.28
2023-02-27T18:53:15.173Z,29.97
2023-02-27T18:57:05.670Z,29.39
2023-02-27T19:02:10.410Z,29.8
2023-02-27T19:06:01.050Z,29.12
2023-02-27T19:12:11.652Z,29.88
2023-02-27T19:17:08.170Z,29.01
2023-02-27T19:22:12.902Z,28.22
2023-02-27T19:25:55.294Z,29.23
2023-02-27T19:29:37.711Z,29.65
2023-02-27T19:33:03.803Z,29.04
2023-02-27T19:36:54.329Z,30
2023-02-27T19:41:50.863Z,29.03
2023-02-27T19:45:33.250Z,30.3
2023-02-27T19:48:01.502Z,29.64
2023-02-27T19:50:29.770Z,29.95
2023-02-27T19:54:20.374Z,30.22
2023-02-27T19:56:48.623Z,30.13
2023-02-27T19:59:16.903Z,29.88
2023-02-27T20:06:49.907Z,29.89
2023-02-27T20:11:54.688Z,30
2023-02-27T20:16:59.362Z,30.49
2023-02-27T20:21:55.868Z,30.64
2023-02-27T20:25:38.310Z,30.39
2023-02-27T20:28:06.498Z,30.52
2023-02-27T20:31:49.033Z,30.58
2023-02-27T20:35:31.419Z,30.43
2023-02-27T20:37:59.629Z,31.01
2023-02-27T20:41:42.026Z,31.71
2023-02-27T20:44:18.470Z,32.93
2023-02-27T20:48:00.867Z,29.13
2023-02-27T20:54:11.536Z,32.65
2023-02-27T21:10:23.550Z,31.8
2023-02-27T21:12:51.755Z,31.18
2023-02-27T21:15:20.022Z,31.4
2023-02-27T21:17:48.247Z,31.84
2023-02-27T21:21:30.875Z,31.39
2023-02-27T21:25:13.071Z,32.02
2023-02-27T21:27:41.400Z,32.6
2023-02-27T21:31:32.398Z,32.04
2023-02-27T21:36:36.641Z,31.61
2023-02-27T21:40:19.055Z,31.86
2023-02-27T21:45:23.746Z,31.68
2023-02-27T21:49:06.203Z,31.61
2023-02-27T21:51:40.260Z,32.34
2023-02-27T21:54:02.683Z,31.99
2023-02-27T21:56:30.949Z,32.21
2023-02-27T21:58:59.221Z,33.19
2023-02-27T22:01:27.888Z,33.08
2023-02-27T22:03:55.729Z,33.57
2023-02-27T22:06:23.999Z,32.38
2023-02-27T22:08:52.410Z,32.89
2023-02-27T22:20:15.888Z,32.68
2023-02-27T22:25:20.613Z,33.16
2023-02-27T22:29:03.031Z,32.43
2023-02-27T22:34:07.726Z,33.08
2023-02-27T22:37:50.114Z,33.08
2023-02-27T22:42:54.849Z,33.41
2023-02-27T22:46:37.336Z,32.66
2023-02-27T22:51:33.789Z,33.04
2023-02-27T22:54:02.065Z,33.39
2023-02-27T22:57:44.414Z,33.18
2023-02-27T23:01:27.054Z,33.23
2023-02-27T23:06:23.399Z,33.6
2023-02-27T23:08:51.639Z,32.56
2023-02-27T23:12:34.044Z,33.19
2023-02-27T23:16:16.471Z,33.07
2023-02-27T23:21:21.164Z,33.52
2023-02-27T23:26:17.709Z,33.95
2023-02-27T23:31:14.298Z,33.07
2023-02-27T23:34:56.643Z,32.92
2023-02-27T23:37:24.926Z,33.34
2023-02-27T23:39:53.137Z,33.58
2023-02-27T23:42:21.422Z,33.02
2023-02-27T23:46:12.131Z,32.74
2023-02-27T23:51:00.345Z,33.35
2023-02-27T23:57:11.049Z,33.11
